Time;durP1;ratioP1;P1;durP2;ratioP2;P2;SDS_P1;SDS_P2;PMS_P1;PMS_P2;Temp;Humidity;BMP_temperature;BMP_pressure;BME280_temperature;BME280_humidity;BME280_pressure;Samples;Min_cycle;Max_cycle;Signal;HPM_P1;HPM_P2
2021/11/19 00:01:55;;;;;;;30.48;21.70;;;11.50;92.40;;;;;;5044667;28;20125;-73
2021/11/19 00:04:22;;;;;;;30.20;21.05;;;11.50;92.30;;;;;;5052968;28;20383;-73
2021/11/19 00:06:47;;;;;;;31.05;20.58;;;11.50;92.30;;;;;;5054267;28;20119;-74
2021/11/19 00:09:13;;;;;;;29.95;20.13;;;11.50;92.30;;;;;;5025483;28;20128;-74
2021/11/19 00:11:41;;;;;;;30.20;20.67;;;11.50;92.30;;;;;;5041611;28;20079;-75
2021/11/19 00:14:08;;;;;;;26.63;19.58;;;11.50;92.30;;;;;;5042227;28;20029;-75
2021/11/19 00:16:36;;;;;;;25.67;19.13;;;11.50;92.30;;;;;;5053153;28;20605;-73
2021/11/19 00:19:04;;;;;;;24.13;18.17;;;11.50;92.40;;;;;;5068056;28;20395;-77
2021/11/19 00:21:32;;;;;;;27.45;19.27;;;11.50;92.30;;;;;;5065103;28;20037;-75
2021/11/19 00:23:58;;;;;;;26.67;18.17;;;11.50;92.30;;;;;;5072388;28;20044;-73
2021/11/19 00:26:26;;;;;;;26.40;18.33;;;11.50;92.30;;;;;;5064803;28;20408;-76
2021/11/19 00:28:52;;;;;;;26.02;17.20;;;11.50;92.40;;;;;;5061857;28;20611;-73
2021/11/19 00:31:19;;;;;;;24.85;17.63;;;11.60;92.40;;;;;;5047601;28;20033;-75
2021/11/19 00:33:45;;;;;;;27.85;17.20;;;11.60;92.30;;;;;;5070695;28;20132;-74
2021/11/19 00:36:16;;;;;;;24.45;18.33;;;11.50;92.30;;;;;;5041431;28;20395;-73
2021/11/19 00:38:43;;;;;;;22.90;16.90;;;11.60;92.30;;;;;;5033944;28;20232;-73
2021/11/19 00:41:10;;;;;;;25.73;17.85;;;11.50;92.30;;;;;;5032487;28;20088;-74
2021/11/19 00:43:37;;;;;;;26.48;17.42;;;11.60;92.40;;;;;;5040402;28;20033;-76
2021/11/19 00:46:04;;;;;;;22.38;15.88;;;11.50;92.40;;;;;;5041457;28;20029;-73
2021/11/19 00:48:32;;;;;;;25.40;17.38;;;11.60;92.30;;;;;;5047606;28;20033;-73
2021/11/19 00:51:17;;;;;;;24.40;18.52;;;11.60;92.20;;;;;;5056709;28;20154;-73
2021/11/19 00:53:46;;;;;;;26.98;19.10;;;11.50;92.20;;;;;;5062933;28;20131;-74
2021/11/19 00:56:15;;;;;;;25.85;18.92;;;11.50;92.20;;;;;;5049657;28;20422;-74
2021/11/19 00:58:41;;;;;;;23.95;18.30;;;11.50;92.20;;;;;;5049608;28;20391;-73
2021/11/19 01:01:17;;;;;;;26.67;17.58;;;11.50;92.20;;;;;;5052585;28;20033;-74
2021/11/19 01:03:43;;;;;;;23.48;18.35;;;11.50;92.20;;;;;;5048691;28;20116;-76
2021/11/19 01:06:09;;;;;;;23.45;17.92;;;11.40;92.20;;;;;;5045455;28;20144;-74
2021/11/19 01:08:35;;;;;;;24.48;17.35;;;11.50;92.30;;;;;;5047620;28;20029;-73
2021/11/19 01:11:04;;;;;;;23.55;17.17;;;11.50;92.30;;;;;;5048546;28;20128;-75
2021/11/19 01:13:32;;;;;;;20.73;15.95;;;11.40;92.30;;;;;;5048631;28;20488;-72
2021/11/19 01:16:08;;;;;;;22.55;15.32;;;11.50;92.30;;;;;;5046796;28;20032;-73
2021/11/19 01:18:50;;;;;;;20.30;15.77;;;11.50;92.40;;;;;;5044988;28;20086;-74
2021/11/19 01:21:26;;;;;;;23.83;15.95;;;11.50;92.30;;;;;;5047585;28;20070;-73
2021/11/19 01:23:51;;;;;;;23.08;16.08;;;11.50;92.30;;;;;;5041698;28;20029;-73
2021/11/19 01:26:24;;;;;;;23.38;16.33;;;11.50;92.30;;;;;;5041983;28;20041;-74
2021/11/19 01:28:55;;;;;;;19.83;15.85;;;11.60;92.20;;;;;;5048403;28;20400;-76
2021/11/19 01:31:26;;;;;;;21.73;16.00;;;11.60;92.20;;;;;;5048678;28;20029;-73
2021/11/19 01:33:51;;;;;;;22.40;16.40;;;11.60;92.10;;;;;;5048953;28;20495;-74
2021/11/19 01:36:19;;;;;;;23.08;16.27;;;11.60;92.00;;;;;;5047192;28;20061;-73
2021/11/19 01:38:46;;;;;;;20.70;15.70;;;11.60;91.90;;;;;;5048536;28;21307;-75
2021/11/19 01:41:31;;;;;;;19.42;14.73;;;11.60;91.90;;;;;;5047837;28;20116;-75
2021/11/19 01:43:58;;;;;;;19.35;15.45;;;11.60;91.70;;;;;;5047496;28;20036;-73
2021/11/19 01:46:26;;;;;;;19.20;14.50;;;11.60;91.70;;;;;;5046001;28;20085;-73
2021/11/19 01:48:54;;;;;;;19.55;14.63;;;11.60;91.60;;;;;;5047514;28;20543;-73
2021/11/19 01:51:47;;;;;;;19.55;15.00;;;11.60;91.60;;;;;;5047604;28;20921;-73
2021/11/19 01:54:18;;;;;;;17.85;14.32;;;11.70;91.50;;;;;;5048156;28;20373;-73
2021/11/19 01:57:02;;;;;;;19.33;15.30;;;11.70;91.40;;;;;;5054387;28;20477;-73
2021/11/19 01:59:54;;;;;;;19.85;15.00;;;11.70;91.30;;;;;;5066557;28;20094;-73
2021/11/19 02:02:34;;;;;;;22.98;15.52;;;11.70;91.20;;;;;;5062754;28;20048;-76
2021/11/19 02:05:06;;;;;;;20.67;15.35;;;11.70;91.30;;;;;;5065956;28;20089;-73
2021/11/19 02:07:44;;;;;;;22.55;16.30;;;11.70;91.20;;;;;;5064694;28;20044;-75
2021/11/19 02:10:24;;;;;;;19.65;15.77;;;11.70;91.10;;;;;;5066046;28;20116;-73
2021/11/19 02:13:16;;;;;;;20.60;15.65;;;11.70;91.10;;;;;;5066979;28;20037;-74
2021/11/19 02:15:51;;;;;;;17.85;15.27;;;11.70;91.00;;;;;;5066085;28;20033;-73
2021/11/19 02:18:29;;;;;;;21.80;15.98;;;11.70;91.00;;;;;;5064638;28;20403;-73
2021/11/19 02:21:00;;;;;;;20.75;15.98;;;11.80;90.90;;;;;;5066627;28;20412;-73
2021/11/19 02:23:33;;;;;;;22.45;16.85;;;11.80;90.80;;;;;;5065907;28;20032;-73
2021/11/19 02:26:04;;;;;;;20.52;16.45;;;11.80;90.80;;;;;;5066696;28;20039;-73
2021/11/19 02:28:33;;;;;;;20.85;16.15;;;11.80;90.60;;;;;;5065929;28;20036;-74
2021/11/19 02:31:08;;;;;;;21.13;16.58;;;11.80;90.50;;;;;;5064192;28;20094;-75
2021/11/19 02:33:34;;;;;;;18.25;15.25;;;11.80;90.50;;;;;;5066359;28;20037;-71
2021/11/19 02:36:23;;;;;;;20.58;16.83;;;11.80;90.50;;;;;;5066353;28;20031;-73
2021/11/19 02:38:57;;;;;;;19.67;15.40;;;11.80;90.40;;;;;;5066078;28;20048;-73
2021/11/19 02:41:24;;;;;;;21.95;16.45;;;11.80;90.40;;;;;;5063447;28;20064;-71
2021/11/19 02:43:57;;;;;;;19.40;15.00;;;11.80;90.40;;;;;;5067525;28;20039;-71
2021/11/19 02:46:27;;;;;;;22.00;17.02;;;11.80;90.40;;;;;;5061974;28;20521;-71
2021/11/19 02:48:53;;;;;;;23.38;15.77;;;11.80;90.60;;;;;;5067255;28;20032;-73
2021/11/19 02:51:23;;;;;;;22.13;17.50;;;11.80;90.60;;;;;;5066051;28;20040;-75
2021/11/19 02:53:50;;;;;;;22.90;16.83;;;11.80;90.60;;;;;;5064618;28;20063;-74
2021/11/19 02:56:18;;;;;;;23.17;17.33;;;11.80;90.70;;;;;;5066787;28;20468;-74
2021/11/19 02:58:47;;;;;;;20.60;16.33;;;11.80;90.90;;;;;;5063042;28;20370;-74
2021/11/19 03:01:21;;;;;;;21.30;16.98;;;11.80;91.00;;;;;;5063381;28;20064;-73
2021/11/19 03:04:11;;;;;;;22.35;16.38;;;11.70;91.00;;;;;;5063416;28;20029;-73
2021/11/19 03:06:49;;;;;;;25.65;17.02;;;11.70;91.10;;;;;;5069661;28;20522;-74
2021/11/19 03:09:20;;;;;;;22.90;17.65;;;11.80;91.10;;;;;;5065354;28;20048;-73
2021/11/19 03:11:47;;;;;;;23.85;17.35;;;11.80;91.10;;;;;;5065031;28;20115;-77
2021/11/19 03:14:14;;;;;;;24.48;17.67;;;11.70;91.10;;;;;;5064831;28;20032;-76
2021/11/19 03:16:41;;;;;;;23.83;17.98;;;11.70;91.20;;;;;;5064356;28;20115;-75
2021/11/19 03:19:07;;;;;;;24.55;18.23;;;11.70;91.30;;;;;;5041929;28;20406;-74
2021/11/19 03:21:34;;;;;;;25.77;18.85;;;11.70;91.30;;;;;;5049448;28;20036;-72
2021/11/19 03:24:01;;;;;;;24.88;18.10;;;11.70;91.40;;;;;;5045432;28;20396;-72
2021/11/19 03:26:28;;;;;;;27.95;20.33;;;11.70;91.40;;;;;;5065089;28;20108;-73
2021/11/19 03:28:53;;;;;;;26.30;19.80;;;11.70;91.50;;;;;;5042505;28;20473;-74
2021/11/19 03:31:19;;;;;;;25.77;18.30;;;11.70;91.50;;;;;;5045000;28;20033;-72
2021/11/19 03:33:47;;;;;;;28.30;20.02;;;11.70;91.50;;;;;;5049857;28;20098;-72
2021/11/19 03:36:14;;;;;;;24.75;19.08;;;11.70;91.60;;;;;;5049810;28;20048;-73
2021/11/19 03:38:43;;;;;;;28.80;20.35;;;11.60;91.60;;;;;;5045168;28;20041;-76
2021/11/19 03:41:10;;;;;;;26.77;20.00;;;11.60;91.50;;;;;;5043646;28;20067;-74
2021/11/19 03:43:46;;;;;;;29.15;20.08;;;11.60;91.60;;;;;;5047868;28;20476;-74
2021/11/19 03:46:16;;;;;;;27.75;20.83;;;11.70;91.60;;;;;;5036013;28;20041;-73
2021/11/19 03:48:42;;;;;;;24.83;19.27;;;11.60;91.60;;;;;;5046475;28;20108;-74
2021/11/19 03:51:25;;;;;;;26.05;19.88;;;11.70;91.60;;;;;;5060909;28;20114;-74
2021/11/19 03:53:51;;;;;;;26.92;20.02;;;11.60;91.60;;;;;;5058239;28;20024;-73
2021/11/19 03:56:17;;;;;;;27.52;20.45;;;11.60;91.70;;;;;;5034553;28;20037;-73
2021/11/19 03:58:44;;;;;;;24.02;19.48;;;11.60;91.80;;;;;;5047864;28;20033;-73
2021/11/19 04:01:17;;;;;;;27.63;20.52;;;11.60;91.80;;;;;;5040244;28;20124;-73
2021/11/19 04:03:44;;;;;;;29.33;20.73;;;11.60;91.80;;;;;;5033322;28;20078;-74
2021/11/19 04:06:10;;;;;;;26.02;20.00;;;11.60;91.70;;;;;;5053755;28;20299;-73
2021/11/19 04:08:36;;;;;;;25.73;19.83;;;11.60;91.70;;;;;;5045548;28;20025;-73
2021/11/19 04:11:03;;;;;;;26.08;19.25;;;11.60;91.70;;;;;;5053669;28;20055;-73
2021/11/19 04:13:29;;;;;;;26.20;19.42;;;11.60;91.70;;;;;;5048590;28;20485;-73
2021/11/19 04:15:59;;;;;;;26.80;19.38;;;11.60;91.80;;;;;;5041314;28;20098;-72
2021/11/19 04:18:25;;;;;;;26.58;19.42;;;11.60;91.90;;;;;;5033618;28;20094;-74
2021/11/19 04:20:52;;;;;;;33.10;20.55;;;11.60;91.80;;;;;;5045216;28;20021;-76
2021/11/19 04:23:18;;;;;;;23.52;18.92;;;11.60;91.80;;;;;;5049896;28;20476;-76
2021/11/19 04:25:45;;;;;;;26.27;19.45;;;11.60;91.80;;;;;;5043695;28;20041;-73
2021/11/19 04:28:11;;;;;;;24.67;19.35;;;11.60;91.80;;;;;;5055457;28;20043;-74
2021/11/19 04:30:41;;;;;;;25.23;19.05;;;11.60;91.80;;;;;;5048778;28;20037;-74
2021/11/19 04:33:08;;;;;;;25.88;19.40;;;11.60;91.90;;;;;;5046111;28;20044;-74
2021/11/19 04:35:34;;;;;;;26.88;18.88;;;11.60;91.90;;;;;;5047084;28;20037;-77
2021/11/19 04:38:00;;;;;;;25.92;19.13;;;11.60;91.90;;;;;;5051447;28;20072;-73
2021/11/19 04:40:27;;;;;;;25.15;19.00;;;11.60;91.80;;;;;;5065384;28;20115;-73
2021/11/19 04:42:53;;;;;;;25.15;17.48;;;11.60;91.80;;;;;;5049272;28;20030;-73
2021/11/19 04:45:23;;;;;;;21.92;17.38;;;11.60;91.70;;;;;;5055680;28;20032;-72
2021/11/19 04:47:49;;;;;;;22.05;16.90;;;11.60;91.70;;;;;;5047490;28;20033;-73
2021/11/19 04:50:16;;;;;;;22.38;18.92;;;11.60;91.80;;;;;;5042348;28;20107;-74
2021/11/19 04:52:43;;;;;;;23.70;17.58;;;11.60;91.70;;;;;;5054911;28;20063;-74
2021/11/19 04:55:10;;;;;;;26.25;19.30;;;11.60;91.60;;;;;;5058340;28;20148;-74
2021/11/19 04:57:36;;;;;;;23.35;18.15;;;11.60;91.70;;;;;;5063840;28;20047;-74
2021/11/19 05:00:11;;;;;;;26.20;19.38;;;11.60;91.70;;;;;;5067935;28;20039;-73
2021/11/19 05:02:38;;;;;;;27.63;19.08;;;11.60;91.70;;;;;;5066546;28;20049;-73
2021/11/19 05:05:04;;;;;;;24.15;18.13;;;11.60;91.80;;;;;;5057577;28;20484;-73
2021/11/19 05:07:30;;;;;;;26.75;21.98;;;11.60;91.80;;;;;;5053791;28;20033;-73
2021/11/19 05:09:56;;;;;;;24.85;18.77;;;11.60;91.80;;;;;;5046274;28;20052;-73
2021/11/19 05:12:27;;;;;;;23.48;18.70;;;11.60;91.70;;;;;;5032934;28;20425;-73
2021/11/19 05:14:53;;;;;;;25.60;19.85;;;11.60;91.80;;;;;;5041764;28;20069;-73
2021/11/19 05:17:22;;;;;;;24.75;18.65;;;11.60;91.80;;;;;;5042337;28;20053;-72
2021/11/19 05:19:48;;;;;;;24.58;19.15;;;11.60;91.80;;;;;;5050210;28;20029;-75
2021/11/19 05:22:14;;;;;;;24.13;18.85;;;11.60;91.70;;;;;;5045307;28;20045;-73
2021/11/19 05:24:41;;;;;;;27.98;20.50;;;11.60;91.70;;;;;;5037860;28;20771;-72
2021/11/19 05:27:07;;;;;;;23.75;18.05;;;11.60;91.80;;;;;;5044770;28;20041;-73
2021/11/19 05:29:32;;;;;;;25.23;19.30;;;11.60;91.80;;;;;;5044494;28;20048;-72
2021/11/19 05:31:58;;;;;;;24.33;18.58;;;11.60;91.80;;;;;;5049136;28;20037;-72
2021/11/19 05:34:25;;;;;;;24.48;18.85;;;11.60;91.90;;;;;;5039338;28;20156;-74
2021/11/19 05:36:51;;;;;;;24.73;19.35;;;11.50;91.90;;;;;;5040096;28;20068;-73
2021/11/19 05:39:17;;;;;;;26.08;20.10;;;11.50;91.90;;;;;;5043864;28;20141;-75
2021/11/19 05:41:42;;;;;;;26.65;19.80;;;11.60;91.90;;;;;;5048326;28;20041;-72
2021/11/19 05:44:09;;;;;;;29.27;20.02;;;11.60;92.00;;;;;;5040360;28;20040;-72
2021/11/19 05:46:40;;;;;;;25.13;18.35;;;11.50;92.00;;;;;;5043572;28;20046;-75
2021/11/19 05:49:09;;;;;;;26.08;17.75;;;11.50;92.10;;;;;;5053520;28;20033;-72
2021/11/19 05:51:36;;;;;;;25.63;18.70;;;11.50;92.10;;;;;;5044115;28;20099;-73
2021/11/19 05:54:02;;;;;;;29.40;19.75;;;11.60;92.10;;;;;;5052346;28;20037;-74
2021/11/19 05:56:28;;;;;;;24.45;18.55;;;11.60;92.00;;;;;;5045757;28;20110;-74
2021/11/19 05:58:54;;;;;;;23.90;18.10;;;11.60;92.10;;;;;;5036570;28;20080;-73
2021/11/19 06:01:21;;;;;;;25.02;18.20;;;11.60;92.00;;;;;;5042140;28;20033;-73
2021/11/19 06:03:48;;;;;;;23.02;17.00;;;11.60;92.10;;;;;;5052104;28;20025;-74
2021/11/19 06:06:15;;;;;;;24.45;18.48;;;11.60;92.00;;;;;;5043968;28;20040;-75
2021/11/19 06:08:42;;;;;;;22.55;17.17;;;11.60;92.00;;;;;;5057419;28;20048;-72
2021/11/19 06:11:12;;;;;;;25.40;19.52;;;11.60;92.00;;;;;;5043330;28;20030;-77
2021/11/19 06:13:46;;;;;;;21.33;16.60;;;11.60;92.00;;;;;;5044405;28;20080;-74
2021/11/19 06:16:18;;;;;;;22.88;17.25;;;11.60;92.00;;;;;;5036779;28;20037;-73
2021/11/19 06:18:50;;;;;;;23.90;17.48;;;11.60;92.00;;;;;;5042926;28;20049;-73
2021/11/19 06:21:30;;;;;;;22.65;16.73;;;11.60;92.00;;;;;;5041645;28;20029;-73
2021/11/19 06:24:00;;;;;;;22.35;16.30;;;11.60;92.10;;;;;;5041321;28;20036;-72
2021/11/19 06:26:29;;;;;;;21.67;17.58;;;11.60;92.10;;;;;;5053266;28;20554;-72
2021/11/19 06:29:02;;;;;;;23.02;16.98;;;11.60;92.20;;;;;;5041768;28;20037;-73
2021/11/19 06:31:29;;;;;;;23.98;17.73;;;11.60;92.10;;;;;;5039213;28;20021;-73
2021/11/19 06:33:54;;;;;;;26.42;18.98;;;11.60;92.10;;;;;;5054212;28;20312;-74
2021/11/19 06:36:21;;;;;;;27.55;18.33;;;11.60;92.10;;;;;;5050623;28;20362;-74
2021/11/19 06:38:48;;;;;;;26.30;18.50;;;11.60;92.20;;;;;;5063969;28;20435;-73
2021/11/19 06:41:14;;;;;;;21.70;17.05;;;11.60;92.20;;;;;;5056329;28;20036;-72
2021/11/19 06:43:41;;;;;;;24.10;17.65;;;11.60;92.20;;;;;;5045645;28;20114;-74
2021/11/19 06:46:08;;;;;;;23.33;17.08;;;11.60;92.20;;;;;;5040773;28;20029;-75
2021/11/19 06:48:34;;;;;;;25.60;18.90;;;11.60;92.30;;;;;;5046689;28;20456;-72
2021/11/19 06:51:03;;;;;;;28.10;20.88;;;11.60;92.20;;;;;;5065095;28;20035;-76
2021/11/19 06:53:30;;;;;;;31.70;22.40;;;11.60;92.20;;;;;;5064072;28;20063;-73
2021/11/19 06:55:56;;;;;;;28.40;22.13;;;11.60;92.10;;;;;;5066237;28;20111;-72
2021/11/19 06:58:22;;;;;;;35.30;25.42;;;11.60;92.20;;;;;;5064980;28;20266;-73
2021/11/19 07:00:48;;;;;;;29.30;22.25;;;11.60;92.20;;;;;;5064592;28;20043;-74
2021/11/19 07:03:15;;;;;;;31.50;22.15;;;11.60;92.20;;;;;;5065202;28;20036;-72
2021/11/19 07:05:41;;;;;;;29.65;21.38;;;11.60;92.20;;;;;;5057065;28;20120;-73
2021/11/19 07:08:09;;;;;;;31.50;22.73;;;11.60;92.30;;;;;;5044190;28;20160;-72
2021/11/19 07:10:36;;;;;;;30.02;22.70;;;11.60;92.30;;;;;;5033097;28;20025;-74
2021/11/19 07:13:02;;;;;;;35.33;23.40;;;11.60;92.40;;;;;;5039336;28;20066;-73
2021/11/19 07:15:28;;;;;;;29.33;22.48;;;11.50;92.30;;;;;;5043536;28;20105;-74
2021/11/19 07:17:55;;;;;;;33.35;25.00;;;11.60;92.30;;;;;;5073762;28;20409;-70
2021/11/19 07:20:24;;;;;;;32.33;24.95;;;11.60;92.40;;;;;;5063540;28;20024;-73
2021/11/19 07:22:50;;;;;;;33.78;25.00;;;11.60;92.40;;;;;;5069814;28;20090;-69
2021/11/19 07:25:20;;;;;;;34.60;26.77;;;11.50;92.50;;;;;;5069696;28;20037;-71
2021/11/19 07:27:48;;;;;;;31.50;25.17;;;11.60;92.50;;;;;;5044772;28;20037;-70
2021/11/19 07:30:19;;;;;;;33.25;25.52;;;11.60;92.50;;;;;;5044189;28;20037;-70
2021/11/19 07:32:46;;;;;;;28.67;22.67;;;11.60;92.50;;;;;;5043123;28;20045;-70
2021/11/19 07:35:12;;;;;;;29.63;23.48;;;11.60;92.50;;;;;;5033558;28;20229;-71
2021/11/19 07:37:38;;;;;;;30.73;21.95;;;11.60;92.50;;;;;;5046851;28;20044;-70
2021/11/19 07:40:07;;;;;;;30.55;22.52;;;11.60;92.50;;;;;;5047081;28;20043;-71
2021/11/19 07:42:33;;;;;;;32.75;23.83;;;11.60;92.50;;;;;;5045689;28;20104;-69
2021/11/19 07:44:59;;;;;;;28.98;22.80;;;11.70;92.40;;;;;;5042011;28;20408;-69
2021/11/19 07:47:25;;;;;;;35.83;23.10;;;11.70;92.40;;;;;;5044158;28;20041;-71
2021/11/19 07:49:50;;;;;;;31.45;23.42;;;11.70;92.40;;;;;;5042497;28;20032;-68
2021/11/19 07:52:16;;;;;;;28.52;22.48;;;11.70;92.40;;;;;;5044980;28;20029;-72
2021/11/19 07:54:42;;;;;;;31.50;22.27;;;11.70;92.40;;;;;;5033051;28;20029;-73
2021/11/19 07:57:07;;;;;;;31.30;22.75;;;11.80;92.40;;;;;;5039731;28;20045;-71
2021/11/19 07:59:35;;;;;;;33.70;24.13;;;11.80;92.30;;;;;;5058223;28;20039;-70
2021/11/19 08:02:01;;;;;;;33.78;24.00;;;11.80;92.30;;;;;;5058971;28;20029;-71
2021/11/19 08:04:29;;;;;;;29.00;21.90;;;11.80;92.30;;;;;;5069117;28;20067;-69
2021/11/19 08:06:56;;;;;;;28.05;22.27;;;11.90;92.30;;;;;;5048521;28;20045;-73
2021/11/19 08:09:22;;;;;;;31.55;22.73;;;11.90;92.20;;;;;;5049507;28;20126;-68
2021/11/19 08:11:48;;;;;;;30.52;23.92;;;11.80;92.20;;;;;;5033863;28;20038;-69
2021/11/19 08:14:13;;;;;;;29.65;22.95;;;11.90;92.10;;;;;;5040307;28;20393;-69
2021/11/19 08:16:47;;;;;;;31.60;24.75;;;11.90;92.10;;;;;;5043040;28;20064;-69
2021/11/19 08:19:30;;;;;;;28.53;22.13;;;11.90;92.10;;;;;;5044588;28;20049;-69
2021/11/19 08:21:59;;;;;;;29.42;23.20;;;12.00;92.00;;;;;;5042438;28;20284;-70
2021/11/19 08:24:26;;;;;;;31.30;23.67;;;11.90;92.00;;;;;;5035964;28;20487;-69
2021/11/19 08:26:59;;;;;;;31.05;23.60;;;12.00;91.90;;;;;;5035012;28;20470;-70
2021/11/19 08:29:28;;;;;;;28.25;21.48;;;12.00;92.00;;;;;;5050243;28;20075;-69
2021/11/19 08:31:55;;;;;;;30.13;23.33;;;12.10;91.90;;;;;;5049056;28;20099;-70
2021/11/19 08:34:22;;;;;;;28.02;22.13;;;12.10;91.80;;;;;;5039313;28;20044;-69
2021/11/19 08:36:48;;;;;;;29.17;23.08;;;12.10;91.80;;;;;;5048647;28;20368;-70
2021/11/19 08:39:17;;;;;;;27.38;21.92;;;12.10;91.80;;;;;;5047606;28;20042;-70
2021/11/19 08:41:43;;;;;;;30.02;22.02;;;12.10;91.70;;;;;;5054540;28;20395;-70
2021/11/19 08:44:10;;;;;;;31.25;22.52;;;12.10;91.60;;;;;;5068033;28;20071;-75
2021/11/19 08:46:42;;;;;;;25.25;19.65;;;12.20;91.60;;;;;;5067067;28;20093;-71
2021/11/19 08:49:10;;;;;;;25.60;19.65;;;12.20;91.40;;;;;;5069463;28;20048;-69
2021/11/19 08:51:36;;;;;;;25.70;19.95;;;12.30;91.30;;;;;;5069051;28;20040;-70
2021/11/19 08:54:06;;;;;;;23.73;18.38;;;12.30;91.00;;;;;;5068097;28;20036;-71
2021/11/19 08:56:37;;;;;;;24.98;18.42;;;12.40;90.70;;;;;;5062056;28;20032;-70
2021/11/19 08:59:04;;;;;;;21.65;17.27;;;12.50;90.50;;;;;;5066738;28;20086;-71
2021/11/19 09:01:30;;;;;;;24.58;17.15;;;12.50;90.20;;;;;;5064539;28;20037;-70
2021/11/19 09:03:56;;;;;;;22.33;17.13;;;12.60;89.90;;;;;;5068853;28;20464;-69
2021/11/19 09:06:22;;;;;;;23.55;17.63;;;12.60;89.80;;;;;;5067519;28;20433;-70
2021/11/19 09:08:50;;;;;;;25.27;17.95;;;12.60;89.80;;;;;;5069596;28;20098;-71
2021/11/19 09:11:19;;;;;;;21.30;16.10;;;12.60;89.50;;;;;;5063658;28;20419;-72
2021/11/19 09:13:47;;;;;;;23.33;17.70;;;12.70;89.30;;;;;;5065611;28;20137;-70
2021/11/19 09:16:16;;;;;;;22.85;17.60;;;12.70;89.10;;;;;;5065504;28;20032;-70
2021/11/19 09:18:54;;;;;;;23.83;17.13;;;12.80;89.00;;;;;;5066058;28;20040;-70
2021/11/19 09:21:44;;;;;;;26.50;18.88;;;12.80;89.00;;;;;;5065680;28;20036;-71
2021/11/19 09:24:18;;;;;;;23.05;17.75;;;12.80;88.80;;;;;;5061021;28;20519;-70
2021/11/19 09:26:56;;;;;;;22.50;17.35;;;13.00;88.90;;;;;;5062496;28;20506;-70
2021/11/19 09:29:28;;;;;;;20.38;17.58;;;13.00;88.60;;;;;;5064945;28;20494;-70
2021/11/19 09:31:55;;;;;;;24.15;18.02;;;13.00;88.60;;;;;;5067749;28;20031;-69
2021/11/19 09:34:22;;;;;;;22.23;17.08;;;13.10;88.20;;;;;;5068511;28;20056;-69
2021/11/19 09:36:51;;;;;;;23.70;18.23;;;13.10;88.40;;;;;;5067464;28;20036;-70
2021/11/19 09:39:20;;;;;;;22.80;16.95;;;13.10;88.20;;;;;;5062343;28;20048;-68
2021/11/19 09:41:57;;;;;;;20.27;15.55;;;13.10;87.90;;;;;;5066177;28;20060;-68
2021/11/19 09:44:26;;;;;;;23.95;16.58;;;13.10;87.70;;;;;;5064277;28;20385;-72
2021/11/19 09:47:12;;;;;;;19.60;15.75;;;13.10;87.70;;;;;;5066515;28;20048;-69
2021/11/19 09:49:48;;;;;;;19.90;15.70;;;13.10;87.70;;;;;;5066724;28;20033;-70
2021/11/19 09:52:52;;;;;;;21.13;15.75;;;13.20;87.80;;;;;;5064993;28;20041;-69
2021/11/19 09:55:45;;;;;;;22.67;16.15;;;13.30;87.70;;;;;;5066475;28;21286;-69
2021/11/19 09:58:50;;;;;;;20.70;15.43;;;13.40;87.50;;;;;;5065349;28;20094;-69
2021/11/19 10:01:38;;;;;;;19.67;15.15;;;13.50;87.20;;;;;;5066018;28;20171;-70
2021/11/19 10:04:36;;;;;;;18.95;15.13;;;13.50;87.10;;;;;;5066133;28;20064;-70
2021/11/19 10:07:27;;;;;;;22.88;16.25;;;13.50;86.90;;;;;;5063548;28;20504;-71
2021/11/19 10:10:24;;;;;;;19.02;15.90;;;13.60;86.80;;;;;;5058712;28;20543;-70
2021/11/19 10:13:03;;;;;;;20.30;14.55;;;13.60;86.60;;;;;;5058656;28;20032;-71
2021/11/19 10:15:58;;;;;;;19.67;15.90;;;13.60;86.40;;;;;;5065363;28;20028;-70
2021/11/19 10:18:33;;;;;;;21.17;15.98;;;13.60;86.00;;;;;;5045019;28;20052;-71
2021/11/19 10:21:09;;;;;;;19.75;15.32;;;13.60;86.10;;;;;;5036423;28;20138;-69
2021/11/19 10:23:54;;;;;;;19.88;14.98;;;13.60;86.20;;;;;;5043703;28;20041;-71
2021/11/19 10:26:30;;;;;;;;;;;13.60;86.30;;;;;;5032972;28;20044;-70
2021/11/19 10:29:13;;;;;;;22.67;15.18;;;13.70;86.00;;;;;;5035990;28;19936;-72
2021/11/19 10:31:39;;;;;;;21.13;16.13;;;13.70;85.90;;;;;;5034831;28;20060;-69
2021/11/19 10:34:46;;;;;;;22.33;16.65;;;13.70;85.70;;;;;;5043660;28;20560;-73
2021/11/19 10:37:54;;;;;;;20.90;15.93;;;13.70;85.60;;;;;;5046593;28;20087;-69
2021/11/19 10:40:41;;;;;;;21.45;16.65;;;13.70;85.90;;;;;;5044516;28;20091;-69
2021/11/19 10:43:22;;;;;;;24.33;16.23;;;13.80;86.10;;;;;;5042759;28;20025;-72
2021/11/19 10:46:25;;;;;;;21.45;16.25;;;13.80;85.70;;;;;;5043993;28;20037;-70
2021/11/19 10:49:19;;;;;;;22.08;16.25;;;13.80;85.40;;;;;;5042624;28;20036;-70
2021/11/19 10:52:04;;;;;;;21.45;16.92;;;13.80;85.60;;;;;;5039624;28;20049;-74
2021/11/19 10:54:45;;;;;;;20.13;15.35;;;13.70;85.90;;;;;;5039025;28;20044;-70
2021/11/19 10:57:29;;;;;;;19.98;15.52;;;13.80;85.50;;;;;;5043718;28;20045;-71
2021/11/19 11:00:10;;;;;;;19.38;15.15;;;13.80;85.30;;;;;;5044122;28;21205;-71
2021/11/19 11:02:48;;;;;;;22.83;16.15;;;13.90;85.20;;;;;;5044891;28;20029;-70
2021/11/19 11:05:27;;;;;;;20.55;15.75;;;13.80;85.30;;;;;;5039659;28;20072;-70
2021/11/19 11:08:14;;;;;;;18.75;15.38;;;13.60;85.90;;;;;;5043897;28;20495;-69
2021/11/19 11:10:51;;;;;;;18.58;15.23;;;13.70;86.00;;;;;;5043249;28;20033;-70
2021/11/19 11:13:40;;;;;;;21.00;15.30;;;13.60;85.90;;;;;;5042331;28;20040;-71
2021/11/19 11:16:17;;;;;;;18.83;15.88;;;13.60;86.10;;;;;;5040038;28;20041;-74
2021/11/19 11:19:13;;;;;;;20.60;16.95;;;13.60;86.10;;;;;;5045345;28;20040;-71
2021/11/19 11:21:50;;;;;;;20.83;15.73;;;13.60;86.30;;;;;;5050095;28;20428;-70
2021/11/19 11:24:29;;;;;;;21.70;16.15;;;13.60;86.40;;;;;;5034357;28;20095;-70
2021/11/19 11:27:16;;;;;;;20.98;15.43;;;13.60;86.30;;;;;;5038849;28;20056;-70
2021/11/19 11:30:07;;;;;;;18.60;14.95;;;13.60;86.20;;;;;;5059689;28;20041;-69
2021/11/19 11:32:40;;;;;;;19.00;14.40;;;13.60;86.50;;;;;;5053798;28;20037;-69
2021/11/19 11:35:30;;;;;;;18.80;14.90;;;13.60;86.40;;;;;;5051887;28;20052;-70
2021/11/19 11:38:25;;;;;;;18.40;14.95;;;13.60;86.20;;;;;;5038718;28;20061;-70
2021/11/19 11:41:10;;;;;;;20.23;15.60;;;13.60;86.20;;;;;;5067519;28;20033;-70
2021/11/19 11:43:55;;;;;;;21.38;15.32;;;13.60;86.50;;;;;;5042397;28;20033;-69
2021/11/19 11:46:24;;;;;;;20.70;15.70;;;13.60;86.50;;;;;;5045356;28;20086;-69
2021/11/19 11:49:20;;;;;;;18.45;14.95;;;13.70;86.60;;;;;;5045655;28;20049;-71
2021/11/19 11:51:48;;;;;;;20.02;15.63;;;13.70;86.30;;;;;;5058466;28;20677;-70
2021/11/19 11:54:25;;;;;;;19.92;15.07;;;13.70;86.00;;;;;;5039952;28;20122;-68
2021/11/19 11:57:29;;;;;;;21.10;16.15;;;13.70;85.90;;;;;;5028072;28;20034;-69
2021/11/19 12:00:16;;;;;;;20.95;16.50;;;13.80;85.90;;;;;;5065287;28;20058;-68
2021/11/19 12:02:50;;;;;;;19.02;15.55;;;13.70;85.90;;;;;;5060963;28;20392;-69
2021/11/19 12:05:36;;;;;;;19.75;16.00;;;13.80;86.10;;;;;;5060717;28;20044;-70
2021/11/19 12:08:22;;;;;;;19.65;15.60;;;13.80;85.90;;;;;;5062712;28;20429;-69
2021/11/19 12:11:25;;;;;;;19.33;15.60;;;13.80;85.10;;;;;;5042782;28;20111;-70
2021/11/19 12:14:17;;;;;;;18.10;15.38;;;13.90;85.50;;;;;;5065032;28;20080;-69
2021/11/19 12:17:07;;;;;;;17.65;14.65;;;13.90;85.60;;;;;;5050243;28;20043;-70
2021/11/19 12:20:02;;;;;;;21.20;16.15;;;13.90;85.30;;;;;;5055198;28;20052;-69
2021/11/19 12:22:39;;;;;;;18.92;13.88;;;13.80;85.40;;;;;;5062468;28;20040;-69
2021/11/19 12:25:29;;;;;;;19.33;14.77;;;13.80;85.00;;;;;;5062841;28;20541;-69
2021/11/19 12:28:02;;;;;;;18.38;14.63;;;13.90;84.90;;;;;;5041861;28;20149;-69
2021/11/19 12:30:34;;;;;;;18.02;15.30;;;13.90;85.10;;;;;;5062322;28;20672;-70
2021/11/19 12:33:23;;;;;;;20.30;15.48;;;13.90;85.10;;;;;;5049409;28;20056;-69
2021/11/19 12:36:07;;;;;;;18.13;14.70;;;14.00;85.00;;;;;;5061409;28;20032;-71
2021/11/19 12:38:36;;;;;;;19.73;15.15;;;14.10;84.80;;;;;;5065226;28;20054;-68
2021/11/19 12:41:13;;;;;;;24.30;16.08;;;14.10;84.80;;;;;;5063711;28;20037;-68
2021/11/19 12:44:15;;;;;;;19.88;15.35;;;14.10;84.60;;;;;;5066367;28;20029;-70
2021/11/19 12:47:00;;;;;;;19.98;15.43;;;14.00;84.30;;;;;;5060125;28;20036;-70
2021/11/19 12:49:55;;;;;;;21.10;15.75;;;14.00;83.90;;;;;;5065046;28;20028;-71
2021/11/19 12:52:42;;;;;;;19.23;15.63;;;13.90;84.10;;;;;;5063750;28;20552;-70
2021/11/19 12:55:26;;;;;;;15.18;12.80;;;13.90;84.10;;;;;;5063070;28;20036;-69
2021/11/19 12:58:26;;;;;;;17.80;13.23;;;13.90;83.80;;;;;;5063642;28;20479;-70